Burton-on-Trent, United Kingdom
Current Conditions -  °F | °C
As of 11:20 PM on Wednesday 28 Jan 2015 (Local Time) from EGNX Reporting Station
Snow Showers Snow Showers  
Wind Chill: -3°   Ceiling: 3800
Heat Index:   Visibility: 6mi
Dew Point:   Wind: 21mph
Humidity: 81%   Direction: 230°SW
Pressure: 29.38"   Gusts: NA
Location:  52.79°N, 1.66°W
Report Text: EGNX 282220Z 23018KT 9999 -SHSN SCT025 BKN038 03/M00 Q0995
Loading
Personal Weather Stations






























Interactive Weather Map New forecast layout! Learn more

10-Day Weather Forecast

Advertisements
Track Severe Weather on mobile